createdAt,value
2019-05-20T00:00:16.520Z,99.90
2019-05-20T00:02:46.341Z,99.90
2019-05-20T00:05:16.137Z,99.90
2019-05-20T00:07:45.824Z,99.90
2019-05-20T00:10:15.659Z,99.90
2019-05-20T00:12:45.002Z,99.90
2019-05-20T00:15:14.790Z,99.90
2019-05-20T00:17:44.127Z,99.90
2019-05-20T00:20:13.604Z,99.90
2019-05-20T00:22:42.995Z,99.90
2019-05-20T00:25:12.413Z,99.90
2019-05-20T00:27:42.004Z,99.90
2019-05-20T00:30:11.707Z,99.90
2019-05-20T00:32:42.426Z,99.90
2019-05-20T00:35:12.172Z,99.90
2019-05-20T00:37:41.675Z,99.90
2019-05-20T00:40:11.557Z,99.90
2019-05-20T00:42:41.388Z,99.90
2019-05-20T00:45:11.612Z,99.90
2019-05-20T00:47:41.069Z,99.90
2019-05-20T00:50:11.091Z,99.90
2019-05-20T00:52:40.658Z,99.90
2019-05-20T00:55:18.637Z,99.90
2019-05-20T00:57:48.631Z,99.90
2019-05-20T01:00:18.054Z,99.90
2019-05-20T01:02:56.368Z,99.90
2019-05-20T01:05:18.790Z,99.90
2019-05-20T01:07:48.135Z,99.90
2019-05-20T01:10:18.131Z,99.90
2019-05-20T01:12:47.713Z,99.90
2019-05-20T01:15:17.863Z,99.90
2019-05-20T01:17:47.190Z,99.90
2019-05-20T01:20:17.047Z,99.90
2019-05-20T01:22:46.427Z,99.90
2019-05-20T01:25:15.858Z,99.90
2019-05-20T01:27:45.230Z,99.90
2019-05-20T01:30:15.771Z,99.90
2019-05-20T01:32:45.231Z,99.90
2019-05-20T01:35:16.403Z,99.90
2019-05-20T01:37:45.794Z,99.90
2019-05-20T01:40:15.836Z,99.90
2019-05-20T01:42:45.309Z,99.90
2019-05-20T01:45:15.642Z,99.90
2019-05-20T01:47:45.078Z,99.90
2019-05-20T01:50:14.788Z,99.90
2019-05-20T01:52:44.198Z,99.90
2019-05-20T01:55:14.088Z,99.90
2019-05-20T01:57:43.566Z,99.90
2019-05-20T02:00:14.780Z,99.90
2019-05-20T02:02:44.126Z,99.90
2019-05-20T02:05:14.282Z,99.90
2019-05-20T02:07:43.625Z,99.90
2019-05-20T02:10:13.536Z,99.90
2019-05-20T02:12:42.985Z,99.90
2019-05-20T02:15:28.664Z,99.90
2019-05-20T02:17:58.007Z,99.90
2019-05-20T02:20:27.558Z,99.90
2019-05-20T02:23:14.784Z,99.90
2019-05-20T02:25:46.787Z,99.90
2019-05-20T02:28:16.695Z,99.90
2019-05-20T02:30:47.026Z,99.90
2019-05-20T02:33:16.488Z,99.90
2019-05-20T02:35:45.901Z,99.90
2019-05-20T02:38:15.365Z,99.90
2019-05-20T02:40:44.754Z,99.90
2019-05-20T02:43:14.194Z,99.90
2019-05-20T02:45:44.055Z,99.90
2019-05-20T02:48:13.584Z,99.90
2019-05-20T02:50:42.994Z,99.90
2019-05-20T02:53:12.564Z,99.90
2019-05-20T02:55:41.904Z,99.90
2019-05-20T02:58:11.346Z,99.90
2019-05-20T03:00:40.788Z,99.90
2019-05-20T03:03:10.176Z,99.90
2019-05-20T03:05:39.699Z,99.90
2019-05-20T03:08:09.043Z,99.90
2019-05-20T03:13:07.387Z,99.90
2019-05-20T03:15:36.880Z,99.90
2019-05-20T03:18:06.264Z,99.90
2019-05-20T03:20:35.808Z,99.90
2019-05-20T03:23:05.661Z,99.90
2019-05-20T03:25:35.743Z,99.90
2019-05-20T03:28:05.213Z,99.90
2019-05-20T03:30:35.163Z,99.90
2019-05-20T03:33:05.056Z,99.90
2019-05-20T03:35:35.033Z,99.90
2019-05-20T03:38:04.942Z,99.90
2019-05-20T03:40:34.419Z,99.90
2019-05-20T03:43:03.905Z,99.90
2019-05-20T03:45:33.806Z,99.90
2019-05-20T03:48:03.348Z,99.90
2019-05-20T16:29:44.518Z,87.10
2019-05-20T16:32:13.885Z,87.80
2019-05-20T16:34:43.393Z,87.70
2019-05-20T16:37:12.939Z,88.10
2019-05-20T16:39:42.366Z,90.00
2019-05-20T16:42:12.107Z,89.40
2019-05-20T16:44:41.876Z,89.00
2019-05-20T16:47:11.219Z,89.30
2019-05-20T16:49:40.671Z,89.20
2019-05-20T16:52:10.011Z,89.70
2019-05-20T16:54:39.378Z,89.80
2019-05-20T16:57:08.995Z,89.50
2019-05-20T16:59:38.324Z,90.60
2019-05-20T17:02:07.646Z,91.60
2019-05-20T17:04:36.982Z,91.50
2019-05-20T17:07:06.326Z,90.90
2019-05-20T17:09:35.669Z,91.60
2019-05-20T17:12:05.072Z,91.90
2019-05-20T17:14:34.468Z,92.10
2019-05-20T17:17:04.256Z,92.50
2019-05-20T17:19:33.599Z,92.80
2019-05-20T17:22:02.952Z,92.80
2019-05-20T17:24:32.524Z,93.40
2019-05-20T17:27:01.910Z,93.30
2019-05-20T17:29:31.277Z,92.50
2019-05-20T17:32:00.902Z,93.00
2019-05-20T17:34:30.287Z,92.60
2019-05-20T17:36:59.714Z,92.40
2019-05-20T17:39:29.111Z,92.20
2019-05-20T17:41:58.686Z,92.10
2019-05-20T17:44:28.086Z,92.30
2019-05-20T17:46:57.413Z,92.40
2019-05-20T17:49:26.847Z,92.60
2019-05-20T17:51:56.197Z,92.50
2019-05-20T17:54:25.544Z,92.50
2019-05-20T17:56:55.017Z,92.80
2019-05-20T17:59:24.350Z,92.70
2019-05-20T18:01:53.694Z,93.00
2019-05-20T18:04:23.044Z,93.00
2019-05-20T18:06:52.447Z,93.00
2019-05-20T18:09:23.435Z,93.30
2019-05-20T18:11:52.760Z,93.70
2019-05-20T18:14:22.094Z,93.70
2019-05-20T18:16:51.522Z,94.00
2019-05-20T18:19:20.882Z,94.50
2019-05-20T18:21:50.218Z,94.10
2019-05-20T18:24:19.565Z,94.70
2019-05-20T18:26:48.966Z,95.00
2019-05-20T18:29:18.295Z,95.50
2019-05-20T18:31:47.720Z,95.50
2019-05-20T18:34:17.132Z,95.90
2019-05-20T18:36:46.483Z,96.30
2019-05-20T18:39:15.821Z,97.20
2019-05-20T18:41:45.238Z,97.70
2019-05-20T18:44:14.578Z,98.40
2019-05-20T18:46:43.958Z,98.90
2019-05-20T18:49:13.347Z,99.40
2019-05-20T18:51:42.772Z,99.50
2019-05-20T18:54:12.250Z,99.90
2019-05-20T18:56:41.909Z,99.90
2019-05-20T18:59:11.688Z,99.90
2019-05-20T19:01:55.860Z,99.90
2019-05-20T19:04:13.779Z,99.90
2019-05-20T19:06:43.192Z,99.90
2019-05-20T19:09:12.838Z,99.90
2019-05-20T19:11:42.195Z,99.90
2019-05-20T19:14:11.537Z,99.90
2019-05-20T19:16:40.870Z,99.90
2019-05-20T19:19:10.202Z,99.90
2019-05-20T19:21:39.526Z,99.90
2019-05-20T19:24:08.896Z,99.90
2019-05-20T19:26:38.227Z,99.90
2019-05-20T19:29:07.632Z,99.90
2019-05-20T19:31:36.970Z,99.90
2019-05-20T19:34:06.343Z,99.90
2019-05-20T19:36:35.734Z,99.90
2019-05-20T19:39:06.902Z,99.90
2019-05-20T19:41:36.241Z,99.90
2019-05-20T19:44:06.388Z,99.90
2019-05-20T19:46:36.133Z,99.90
2019-05-20T19:49:05.445Z,99.90
2019-05-20T19:51:34.835Z,99.90
2019-05-20T19:54:04.177Z,99.90
2019-05-20T19:56:34.205Z,99.90
2019-05-20T19:59:03.611Z,99.90
2019-05-20T20:01:32.942Z,99.90
2019-05-20T20:04:02.286Z,99.90
2019-05-20T20:06:31.631Z,99.90
2019-05-20T20:09:01.034Z,99.90
2019-05-20T20:11:30.364Z,99.90
2019-05-20T20:13:59.694Z,99.90
2019-05-20T20:16:29.022Z,99.90
2019-05-20T20:18:58.570Z,99.90
2019-05-20T20:21:27.911Z,99.90
2019-05-20T20:23:57.250Z,99.90
2019-05-20T20:26:26.955Z,99.90
2019-05-20T20:28:56.295Z,99.90
2019-05-20T20:31:25.626Z,99.90
2019-05-20T20:33:55.023Z,99.90
2019-05-20T20:36:24.360Z,99.90
2019-05-20T20:38:53.687Z,99.90
2019-05-20T20:41:23.031Z,99.90
2019-05-20T20:43:52.472Z,99.90
2019-05-20T20:46:21.811Z,99.90
2019-05-20T20:48:51.150Z,99.90
2019-05-20T20:51:20.478Z,99.90
2019-05-20T20:53:49.822Z,99.90
2019-05-20T20:56:25.181Z,99.90
2019-05-20T20:58:50.235Z,99.90
2019-05-20T21:01:19.637Z,99.90
2019-05-20T21:03:48.979Z,99.90
2019-05-20T21:06:18.336Z,99.90
2019-05-20T21:08:47.660Z,99.90
2019-05-20T21:11:17.004Z,99.90
2019-05-20T21:13:46.349Z,99.90
2019-05-20T21:16:15.794Z,99.90
2019-05-20T21:18:45.134Z,99.90
2019-05-20T21:21:14.471Z,99.90
2019-05-20T21:23:43.819Z,99.90
2019-05-20T21:28:42.282Z,99.90
2019-05-20T21:31:11.679Z,99.90
2019-05-20T21:33:41.082Z,99.90
2019-05-20T21:36:10.443Z,99.90
2019-05-20T21:38:39.887Z,99.90
2019-05-20T21:41:09.228Z,99.90
2019-05-20T21:43:38.680Z,99.90
2019-05-20T21:46:08.055Z,99.90
2019-05-20T21:48:37.434Z,99.90
2019-05-20T21:51:06.788Z,99.90
2019-05-20T21:53:36.223Z,99.90
2019-05-20T21:56:05.583Z,99.90
2019-05-20T21:58:34.937Z,99.90
2019-05-20T22:01:04.587Z,99.90
2019-05-20T22:03:33.931Z,99.90
2019-05-20T22:06:03.263Z,99.90
2019-05-20T22:08:32.590Z,99.90
2019-05-20T22:11:01.966Z,99.90
2019-05-20T22:13:31.379Z,99.90
2019-05-20T22:16:00.719Z,99.90
2019-05-20T22:18:30.077Z,99.90
2019-05-20T22:20:59.490Z,99.90
2019-05-20T22:23:42.546Z,99.90
2019-05-20T22:26:11.886Z,99.90
2019-05-20T22:28:41.218Z,99.90
2019-05-20T22:31:10.645Z,99.90
2019-05-20T22:33:42.167Z,99.90
2019-05-20T22:36:11.166Z,99.90
2019-05-20T22:38:40.514Z,99.90
2019-05-20T22:41:09.930Z,99.90
2019-05-20T22:43:39.267Z,99.90
2019-05-20T22:46:08.603Z,99.90
2019-05-20T22:48:38.010Z,99.90
2019-05-20T22:51:07.355Z,99.90
2019-05-20T22:53:36.829Z,99.90
2019-05-20T22:56:06.225Z,99.90
2019-05-20T22:58:38.575Z,99.90
2019-05-20T23:01:06.749Z,99.90
2019-05-20T23:03:36.163Z,99.90
2019-05-20T23:06:05.503Z,99.90
2019-05-20T23:08:34.846Z,99.90
2019-05-20T23:11:04.187Z,99.90
2019-05-20T23:13:33.538Z,99.90
2019-05-20T23:16:02.948Z,99.90
2019-05-20T23:18:32.295Z,99.90
2019-05-20T23:21:01.630Z,99.90
2019-05-20T23:23:31.394Z,99.90
2019-05-20T23:26:00.727Z,99.90
2019-05-20T23:28:30.073Z,99.90
2019-05-20T23:30:59.486Z,99.90
2019-05-20T23:33:28.813Z,99.90
2019-05-20T23:35:58.243Z,99.90
2019-05-20T23:38:27.650Z,99.90
2019-05-20T23:40:56.982Z,99.90
2019-05-20T23:43:26.346Z,99.90
2019-05-20T23:45:55.754Z,99.90
2019-05-20T23:48:25.098Z,99.90
2019-05-20T23:50:54.707Z,99.90
2019-05-20T23:53:24.119Z,99.90
2019-05-20T23:55:53.459Z,99.90
2019-05-20T23:58:22.794Z,99.90
